Time;durP1;ratioP1;P1;durP2;ratioP2;P2;SDS_P1;SDS_P2;PMS_P1;PMS_P2;Temp;Humidity;BMP_temperature;BMP_pressure;BME280_temperature;BME280_humidity;BME280_pressure;Samples;Min_cycle;Max_cycle;Signal;HPM_P1;HPM_P2
2023/06/06 00:00:16;;;;;;;17.40;13.30;;;21.10;99.90;;;;;;5099660;28;20472;-77
2023/06/06 00:02:44;;;;;;;16.10;14.47;;;21.10;99.90;;;;;;5099256;28;20431;-77
2023/06/06 00:05:14;;;;;;;15.60;14.10;;;21.10;99.90;;;;;;5099038;28;20472;-84
2023/06/06 00:07:45;;;;;;;14.93;13.60;;;21.10;99.90;;;;;;5117429;28;20416;-77
2023/06/06 00:10:12;;;;;;;16.57;13.50;;;21.10;99.90;;;;;;5117259;28;20471;-76
2023/06/06 00:12:41;;;;;;;17.53;14.07;;;21.10;99.90;;;;;;5099372;28;20481;-84
2023/06/06 00:15:07;;;;;;;14.87;12.50;;;21.20;99.90;;;;;;5117206;28;20439;-77
2023/06/06 00:17:33;;;;;;;15.00;13.50;;;21.20;99.90;;;;;;5098844;28;20460;-77
2023/06/06 00:19:59;;;;;;;15.33;13.70;;;21.20;99.90;;;;;;5117223;28;20460;-85
2023/06/06 00:22:25;;;;;;;15.07;13.40;;;21.20;99.90;;;;;;5117214;28;20228;-83
2023/06/06 00:24:54;;;;;;;16.53;14.83;;;21.20;99.90;;;;;;5117473;28;20195;-84
2023/06/06 00:27:20;;;;;;;14.33;12.83;;;21.20;99.90;;;;;;5117168;28;20176;-84
2023/06/06 00:29:46;;;;;;;16.73;15.03;;;21.20;99.90;;;;;;5117485;28;20432;-77
2023/06/06 00:32:12;;;;;;;15.00;13.03;;;21.20;99.90;;;;;;5098636;28;20416;-77
2023/06/06 00:34:37;;;;;;;15.97;14.00;;;21.20;99.90;;;;;;5098726;28;20424;-77
2023/06/06 00:37:04;;;;;;;14.93;13.13;;;21.20;99.90;;;;;;5116227;28;20213;-77
2023/06/06 00:39:29;;;;;;;14.50;13.10;;;21.20;99.90;;;;;;5098575;28;20199;-77
2023/06/06 00:41:55;;;;;;;19.20;14.43;;;21.20;99.90;;;;;;5098639;28;20416;-78
2023/06/06 00:44:21;;;;;;;17.57;13.07;;;21.20;99.90;;;;;;5116818;28;20176;-77
2023/06/06 00:46:47;;;;;;;13.50;11.97;;;21.10;99.90;;;;;;5098393;28;20202;-85
2023/06/06 00:49:15;;;;;;;15.80;13.50;;;21.10;99.90;;;;;;5116529;28;20506;-85
2023/06/06 00:51:43;;;;;;;15.10;13.50;;;21.10;99.90;;;;;;5116546;28;20419;-77
2023/06/06 00:54:12;;;;;;;14.90;13.40;;;21.10;99.90;;;;;;5116867;28;20416;-83
2023/06/06 00:56:39;;;;;;;15.17;13.67;;;21.10;99.90;;;;;;5116453;28;20498;-84
2023/06/06 00:59:06;;;;;;;16.07;14.30;;;21.00;99.90;;;;;;5116768;28;20927;-77
2023/06/06 01:01:34;;;;;;;15.70;14.10;;;21.00;99.90;;;;;;5098086;28;20959;-77
2023/06/06 01:04:02;;;;;;;16.03;14.20;;;21.00;99.90;;;;;;5116619;28;20469;-84
2023/06/06 01:06:33;;;;;;;19.27;13.70;;;21.00;99.90;;;;;;5116296;28;20940;-85
2023/06/06 01:09:01;;;;;;;16.20;14.07;;;21.00;99.90;;;;;;5116576;28;20532;-85
2023/06/06 01:11:39;;;;;;;17.47;13.53;;;21.00;99.90;;;;;;5097925;28;20436;-85
2023/06/06 01:14:21;;;;;;;16.70;13.93;;;21.00;99.90;;;;;;5116437;28;20769;-77
2023/06/06 01:16:52;;;;;;;15.83;13.83;;;21.00;99.90;;;;;;5097746;28;20459;-84
2023/06/06 01:19:27;;;;;;;16.03;13.50;;;21.10;99.90;;;;;;5116499;28;20514;-85
2023/06/06 01:21:54;;;;;;;15.13;12.63;;;21.10;99.90;;;;;;5115967;28;20437;-77
2023/06/06 01:24:21;;;;;;;15.07;13.47;;;21.10;99.90;;;;;;5116497;28;20515;-77
2023/06/06 01:26:47;;;;;;;21.50;13.00;;;21.10;99.90;;;;;;5097554;28;20518;-77
2023/06/06 01:29:13;;;;;;;15.80;13.67;;;21.00;99.90;;;;;;5116205;28;20498;-77
2023/06/06 01:31:48;;;;;;;15.87;13.13;;;21.00;99.90;;;;;;5097452;28;20438;-85
2023/06/06 01:34:33;;;;;;;18.67;13.17;;;21.00;99.90;;;;;;5116149;28;20486;-85
2023/06/06 01:37:16;;;;;;;13.20;11.90;;;21.00;99.90;;;;;;5115592;28;20547;-84
2023/06/06 01:39:45;;;;;;;20.80;14.63;;;21.00;99.90;;;;;;5115622;28;20404;-84
2023/06/06 01:42:14;;;;;;;17.43;13.73;;;21.00;99.90;;;;;;5115627;28;20444;-77
2023/06/06 01:44:40;;;;;;;14.70;12.80;;;21.00;99.90;;;;;;5115905;28;20549;-77
2023/06/06 01:47:07;;;;;;;15.10;12.33;;;21.00;99.90;;;;;;5115512;28;20418;-77
2023/06/06 01:49:33;;;;;;;16.80;13.20;;;21.00;99.90;;;;;;5096521;28;20873;-77
2023/06/06 01:51:59;;;;;;;18.43;12.90;;;21.00;99.90;;;;;;5097269;28;20955;-84
2023/06/06 01:54:26;;;;;;;14.93;12.63;;;20.90;99.90;;;;;;5115894;28;20416;-84
2023/06/06 01:56:52;;;;;;;15.70;13.60;;;20.90;99.90;;;;;;5115219;28;20383;-83
2023/06/06 01:59:17;;;;;;;18.90;13.30;;;20.90;99.90;;;;;;5097148;28;20440;-78
2023/06/06 02:01:43;;;;;;;15.33;13.73;;;20.90;99.90;;;;;;5115209;28;20236;-84
2023/06/06 02:04:09;;;;;;;18.00;13.50;;;20.80;99.90;;;;;;5097013;28;20436;-84
2023/06/06 02:06:35;;;;;;;26.17;15.97;;;20.80;99.90;;;;;;5115129;28;20919;-84
2023/06/06 02:09:01;;;;;;;18.40;14.93;;;20.80;99.90;;;;;;5096721;28;20713;-77
2023/06/06 02:11:28;;;;;;;14.27;12.77;;;20.80;99.90;;;;;;5096860;28;20211;-77
2023/06/06 02:13:57;;;;;;;16.07;13.80;;;20.80;99.90;;;;;;5115232;28;20582;-84
2023/06/06 02:16:23;;;;;;;17.43;14.20;;;20.80;99.90;;;;;;5114834;28;20466;-85
2023/06/06 02:18:49;;;;;;;15.00;13.07;;;20.70;99.90;;;;;;5115055;28;20408;-84
2023/06/06 02:21:15;;;;;;;15.17;13.40;;;20.70;99.90;;;;;;5114952;28;20456;-77
2023/06/06 02:23:41;;;;;;;16.10;14.50;;;20.80;99.90;;;;;;5115075;28;20920;-77
2023/06/06 02:26:07;;;;;;;15.67;13.77;;;20.80;99.90;;;;;;5096566;28;20191;-77
2023/06/06 02:28:32;;;;;;;15.90;13.40;;;20.80;99.90;;;;;;5096591;28;20277;-77
2023/06/06 02:30:58;;;;;;;19.43;14.50;;;20.80;99.90;;;;;;5096313;28;20202;-85
2023/06/06 02:33:23;;;;;;;20.20;13.90;;;20.80;99.90;;;;;;5115021;28;20179;-83
2023/06/06 02:35:50;;;;;;;21.43;13.77;;;20.80;99.90;;;;;;5114401;28;20218;-77
2023/06/06 02:38:15;;;;;;;14.80;13.23;;;20.80;99.90;;;;;;5096443;28;20183;-85
2023/06/06 02:40:41;;;;;;;17.17;15.23;;;20.80;99.90;;;;;;5114469;28;20422;-77
2023/06/06 02:43:07;;;;;;;20.47;14.37;;;20.80;99.90;;;;;;5096242;28;20194;-85
2023/06/06 02:45:33;;;;;;;16.70;14.23;;;20.80;99.90;;;;;;5114437;28;20186;-77
2023/06/06 02:47:59;;;;;;;19.73;13.67;;;20.80;99.90;;;;;;5096212;28;20656;-77
2023/06/06 02:50:28;;;;;;;16.60;14.17;;;20.80;99.90;;;;;;5096120;28;20452;-85
2023/06/06 02:52:55;;;;;;;17.33;15.40;;;20.80;99.90;;;;;;5114374;28;20167;-84
2023/06/06 02:55:21;;;;;;;18.97;14.90;;;20.70;99.90;;;;;;5114324;28;20416;-77
2023/06/06 02:57:46;;;;;;;21.10;15.00;;;20.60;99.90;;;;;;5095957;28;20505;-81
2023/06/06 03:00:12;;;;;;;17.60;15.80;;;20.60;99.90;;;;;;5114385;28;20818;-77
2023/06/06 03:02:38;;;;;;;21.80;15.10;;;20.50;99.90;;;;;;5114364;28;20513;-78
2023/06/06 03:05:04;;;;;;;19.67;15.80;;;20.50;99.90;;;;;;5096098;28;20454;-84
2023/06/06 03:07:30;;;;;;;18.83;16.50;;;20.50;99.90;;;;;;5096007;28;20692;-83
2023/06/06 03:09:56;;;;;;;23.20;16.60;;;20.50;99.90;;;;;;5095964;28;20550;-77
2023/06/06 03:12:22;;;;;;;16.73;14.97;;;20.50;99.90;;;;;;5114163;28;20409;-83
2023/06/06 03:14:47;;;;;;;19.30;16.40;;;20.50;99.90;;;;;;5114541;28;20249;-84
2023/06/06 03:17:13;;;;;;;19.43;15.27;;;20.60;99.90;;;;;;5114201;28;20196;-80
2023/06/06 03:19:40;;;;;;;19.83;16.30;;;20.60;99.90;;;;;;5114521;28;20189;-77
2023/06/06 03:22:06;;;;;;;20.83;16.90;;;20.50;99.90;;;;;;5095956;28;20207;-77
2023/06/06 03:24:33;;;;;;;19.37;17.10;;;20.50;99.90;;;;;;5095976;28;20424;-77
2023/06/06 03:26:59;;;;;;;19.97;17.57;;;20.50;99.90;;;;;;5114044;28;20464;-77
2023/06/06 03:29:25;;;;;;;19.60;17.03;;;20.60;99.90;;;;;;5095938;28;20958;-77
2023/06/06 03:31:51;;;;;;;21.37;18.23;;;20.60;99.90;;;;;;5095573;28;20436;-82
2023/06/06 03:34:16;;;;;;;19.67;17.67;;;20.60;99.90;;;;;;5095857;28;20187;-84
2023/06/06 03:36:42;;;;;;;21.10;16.70;;;20.60;99.90;;;;;;5113862;28;20222;-84
2023/06/06 03:39:08;;;;;;;23.43;17.27;;;20.60;99.90;;;;;;5095706;28;20198;-78
2023/06/06 03:41:33;;;;;;;18.37;16.00;;;20.60;99.90;;;;;;5113804;28;20210;-80
2023/06/06 03:44:00;;;;;;;20.10;16.73;;;20.60;99.90;;;;;;5114105;28;20179;-82
2023/06/06 03:46:26;;;;;;;23.70;16.57;;;20.60;99.90;;;;;;5113811;28;20187;-77
2023/06/06 03:48:51;;;;;;;18.90;16.60;;;20.60;99.90;;;;;;5095381;28;20457;-83
2023/06/06 03:51:17;;;;;;;19.00;15.63;;;20.60;99.90;;;;;;5113801;28;20419;-84
2023/06/06 03:53:43;;;;;;;17.07;15.23;;;20.60;99.90;;;;;;5114033;28;20651;-83
2023/06/06 03:56:09;;;;;;;18.17;15.60;;;20.50;99.90;;;;;;5095403;28;20218;-77
2023/06/06 03:58:36;;;;;;;19.33;14.90;;;20.50;99.90;;;;;;5096055;28;20192;-84
2023/06/06 04:01:02;;;;;;;16.80;14.70;;;20.50;99.90;;;;;;5113905;28;20957;-77
2023/06/06 04:03:29;;;;;;;18.43;14.73;;;20.50;99.90;;;;;;5095249;28;20427;-83
2023/06/06 04:05:55;;;;;;;19.80;15.10;;;20.50;99.90;;;;;;5113622;28;20849;-83
2023/06/06 04:08:20;;;;;;;18.13;14.00;;;20.50;99.90;;;;;;5113829;28;20503;-84
2023/06/06 04:10:46;;;;;;;17.10;14.07;;;20.50;99.90;;;;;;5113636;28;20183;-77
2023/06/06 04:13:12;;;;;;;14.30;12.73;;;20.40;99.90;;;;;;5097691;28;20240;-77
2023/06/06 04:15:37;;;;;;;14.60;13.10;;;20.40;99.90;;;;;;5117275;28;20217;-83
2023/06/06 04:18:05;;;;;;;12.90;11.50;;;20.40;99.90;;;;;;5117207;28;20266;-77
2023/06/06 04:20:32;;;;;;;14.37;12.97;;;20.30;99.90;;;;;;5116327;28;20254;-77
2023/06/06 04:23:00;;;;;;;17.93;13.33;;;20.30;99.90;;;;;;5117074;28;20407;-78
2023/06/06 04:25:26;;;;;;;16.90;13.70;;;20.20;99.90;;;;;;5116983;28;20978;-78
2023/06/06 04:27:52;;;;;;;13.23;11.87;;;20.20;99.90;;;;;;5125083;27;20421;-77
2023/06/06 04:30:22;;;;;;;16.10;11.50;;;20.20;99.90;;;;;;5113063;27;20439;-84
2023/06/06 04:32:48;;;;;;;13.43;12.10;;;20.30;99.90;;;;;;5104974;28;20179;-85
2023/06/06 04:35:15;;;;;;;14.77;12.77;;;20.30;99.90;;;;;;5103875;27;20423;-78
2023/06/06 04:37:41;;;;;;;13.40;11.67;;;20.30;99.90;;;;;;5102870;28;20524;-86
2023/06/06 04:40:11;;;;;;;13.87;11.27;;;20.30;99.90;;;;;;5132364;27;20472;-77
2023/06/06 04:42:37;;;;;;;12.00;10.73;;;20.40;99.90;;;;;;5134579;27;20419;-85
2023/06/06 04:45:03;;;;;;;11.40;10.30;;;20.40;99.90;;;;;;5126243;27;20488;-77
2023/06/06 04:47:32;;;;;;;11.07;10.03;;;20.50;99.90;;;;;;5113457;28;20258;-84
2023/06/06 04:49:58;;;;;;;11.93;10.73;;;20.50;99.90;;;;;;5096376;28;20484;-85
2023/06/06 04:52:24;;;;;;;12.47;11.13;;;20.60;99.90;;;;;;5116339;28;20412;-76
2023/06/06 04:54:51;;;;;;;15.27;10.20;;;20.60;99.90;;;;;;5096239;28;20538;-83
2023/06/06 04:57:19;;;;;;;11.57;10.40;;;20.60;99.90;;;;;;5115234;28;20491;-83
2023/06/06 04:59:52;;;;;;;11.40;10.20;;;20.50;99.90;;;;;;5115863;27;20427;-84
2023/06/06 05:02:22;;;;;;;13.37;10.23;;;20.50;99.90;;;;;;5096475;28;20476;-84
2023/06/06 05:04:52;;;;;;;11.03;9.63;;;20.50;99.90;;;;;;5129983;27;20457;-83
2023/06/06 05:07:18;;;;;;;14.97;10.70;;;20.50;99.90;;;;;;5115764;28;20420;-83
2023/06/06 05:09:44;;;;;;;11.40;9.90;;;20.50;99.90;;;;;;5086992;28;20497;-83
2023/06/06 05:12:10;;;;;;;10.97;9.63;;;20.50;99.90;;;;;;5102806;27;20874;-84
2023/06/06 05:14:35;;;;;;;12.10;10.30;;;20.50;99.90;;;;;;5129475;27;20476;-84
2023/06/06 05:17:01;;;;;;;13.33;9.30;;;20.50;99.90;;;;;;5113439;27;20695;-76
2023/06/06 05:19:27;;;;;;;12.50;9.87;;;20.50;99.90;;;;;;5094408;27;20191;-84
2023/06/06 05:21:53;;;;;;;14.03;9.67;;;20.60;99.90;;;;;;5109855;28;20846;-83
2023/06/06 05:24:20;;;;;;;12.27;10.00;;;20.60;99.90;;;;;;5111716;28;20727;-76
2023/06/06 05:26:46;;;;;;;11.23;10.10;;;20.60;99.90;;;;;;5108182;28;20269;-76
2023/06/06 05:29:11;;;;;;;11.10;9.57;;;20.60;99.90;;;;;;5113782;28;20841;-84
2023/06/06 05:31:37;;;;;;;13.03;11.03;;;20.60;99.90;;;;;;5125554;27;20209;-84
2023/06/06 05:34:03;;;;;;;11.93;10.10;;;20.70;99.90;;;;;;5115624;27;20613;-84
2023/06/06 05:36:29;;;;;;;10.50;9.10;;;20.70;99.90;;;;;;5128309;27;20308;-76
2023/06/06 05:38:55;;;;;;;11.33;9.53;;;20.70;99.90;;;;;;5097217;28;20458;-84
2023/06/06 05:41:20;;;;;;;10.33;9.10;;;20.70;99.90;;;;;;5115595;27;20523;-77
2023/06/06 05:43:47;;;;;;;13.33;9.50;;;20.70;99.90;;;;;;5127827;27;20190;-84
2023/06/06 05:46:14;;;;;;;10.97;9.70;;;20.70;99.90;;;;;;5130656;27;20615;-76
2023/06/06 05:48:40;;;;;;;10.70;9.37;;;20.70;99.90;;;;;;5103981;27;20934;-84
2023/06/06 05:51:07;;;;;;;11.30;9.80;;;20.70;99.90;;;;;;5102636;27;20455;-76
2023/06/06 05:53:32;;;;;;;11.37;9.57;;;20.70;99.90;;;;;;5102362;27;20427;-76
2023/06/06 05:55:58;;;;;;;12.90;10.73;;;20.80;99.90;;;;;;5097404;28;20547;-80
2023/06/06 05:58:24;;;;;;;11.37;10.27;;;20.80;99.90;;;;;;5114954;27;20184;-76
2023/06/06 06:00:50;;;;;;;12.33;10.20;;;20.80;99.90;;;;;;5085994;28;20226;-76
2023/06/06 06:03:15;;;;;;;12.30;10.13;;;20.80;99.90;;;;;;5094061;27;20542;-76
2023/06/06 06:05:42;;;;;;;11.47;9.90;;;20.80;99.90;;;;;;5095754;28;20211;-76
2023/06/06 06:08:07;;;;;;;12.27;9.60;;;20.80;99.90;;;;;;5114249;27;20254;-86
2023/06/06 06:10:35;;;;;;;11.20;10.03;;;20.90;99.90;;;;;;5097304;28;20585;-76
2023/06/06 06:13:02;;;;;;;11.07;9.27;;;20.90;99.90;;;;;;5112048;27;20191;-74
2023/06/06 06:15:32;;;;;;;9.60;8.27;;;20.90;99.90;;;;;;5110672;27;20452;-75
2023/06/06 06:17:58;;;;;;;9.53;8.30;;;20.90;99.90;;;;;;5115035;27;21003;-75
2023/06/06 06:20:24;;;;;;;10.20;9.20;;;20.80;99.90;;;;;;5115407;27;20551;-87
2023/06/06 06:22:49;;;;;;;10.07;9.03;;;20.80;99.90;;;;;;5112917;28;20896;-88
2023/06/06 06:25:16;;;;;;;9.97;8.10;;;20.80;99.90;;;;;;5127379;27;20281;-89
2023/06/06 06:27:43;;;;;;;10.07;8.90;;;20.90;99.90;;;;;;5101433;28;20181;-87
2023/06/06 06:30:10;;;;;;;10.27;8.27;;;20.90;99.90;;;;;;5090454;28;20484;-75
2023/06/06 06:32:41;;;;;;;11.40;7.80;;;20.90;99.90;;;;;;5097105;27;20494;-89
2023/06/06 06:35:08;;;;;;;11.80;8.13;;;21.00;99.90;;;;;;5092658;28;20456;-75
2023/06/06 06:37:39;;;;;;;8.47;7.30;;;21.00;99.90;;;;;;5110551;28;21174;-89
2023/06/06 06:40:08;;;;;;;8.27;7.43;;;21.00;99.90;;;;;;5108571;28;20523;-74
2023/06/06 06:42:33;;;;;;;9.17;8.27;;;21.00;99.90;;;;;;5107163;27;20507;-75
2023/06/06 06:44:59;;;;;;;9.90;8.83;;;21.10;99.90;;;;;;5108645;28;21019;-88
2023/06/06 06:47:25;;;;;;;21.77;9.10;;;21.10;99.90;;;;;;5108189;28;20167;-86
2023/06/06 06:49:52;;;;;;;11.40;9.10;;;21.10;99.90;;;;;;5107682;28;20545;-75
2023/06/06 06:52:18;;;;;;;9.40;8.50;;;21.20;99.90;;;;;;5124785;27;20187;-75
2023/06/06 06:54:53;;;;;;;10.43;8.57;;;21.20;99.90;;;;;;5107208;28;20526;-75
2023/06/06 06:57:20;;;;;;;12.73;9.53;;;21.20;99.90;;;;;;5125860;27;20463;-89
2023/06/06 06:59:46;;;;;;;43.30;30.07;;;21.20;99.90;;;;;;5127459;27;20451;-89
2023/06/06 07:02:12;;;;;;;11.47;9.60;;;21.20;99.90;;;;;;5091490;28;20457;-88
2023/06/06 07:04:39;;;;;;;13.83;9.50;;;21.30;99.90;;;;;;5126504;27;20875;-89
2023/06/06 07:07:06;;;;;;;11.20;9.57;;;21.30;99.90;;;;;;5085205;28;20315;-76
2023/06/06 07:09:32;;;;;;;10.63;8.77;;;21.30;99.90;;;;;;5095529;28;20466;-84
2023/06/06 07:11:57;;;;;;;9.03;8.13;;;21.30;99.90;;;;;;5118171;27;20428;-79
2023/06/06 07:14:25;;;;;;;12.30;8.07;;;21.40;99.90;;;;;;5093809;28;20951;-76
2023/06/06 07:16:51;;;;;;;9.40;7.50;;;21.40;99.90;;;;;;5094440;28;20696;-75
2023/06/06 07:19:16;;;;;;;9.13;8.20;;;21.40;99.90;;;;;;5109551;28;20426;-76
2023/06/06 07:21:42;;;;;;;8.20;7.17;;;21.40;99.90;;;;;;5129905;27;20272;-76
2023/06/06 07:24:08;;;;;;;10.33;7.57;;;21.40;99.90;;;;;;5094787;28;20176;-79
2023/06/06 07:26:34;;;;;;;7.83;6.77;;;21.40;99.90;;;;;;5130705;27;20673;-78
2023/06/06 07:28:59;;;;;;;9.53;7.17;;;21.40;99.90;;;;;;5111468;28;20553;-78
2023/06/06 07:31:26;;;;;;;8.33;7.13;;;21.30;99.90;;;;;;5124641;28;20227;-78
2023/06/06 07:33:51;;;;;;;8.60;7.70;;;21.20;99.90;;;;;;5111554;28;20183;-78
2023/06/06 07:36:17;;;;;;;8.43;7.40;;;21.20;99.90;;;;;;5109215;28;20995;-76
2023/06/06 07:38:43;;;;;;;10.20;8.10;;;21.20;99.90;;;;;;5109193;28;20191;-76
2023/06/06 07:41:08;;;;;;;7.40;6.70;;;21.20;99.90;;;;;;5092399;28;20230;-78
2023/06/06 07:43:34;;;;;;;7.80;7.00;;;21.20;99.90;;;;;;5107065;28;20211;-76
2023/06/06 07:46:00;;;;;;;9.57;8.00;;;21.20;99.90;;;;;;5089109;28;20204;-77
2023/06/06 07:48:25;;;;;;;10.00;7.97;;;21.20;99.90;;;;;;5113004;28;20294;-77
2023/06/06 07:50:51;;;;;;;8.87;7.97;;;21.20;99.90;;;;;;5113464;27;20561;-76
2023/06/06 07:53:17;;;;;;;13.03;8.40;;;21.10;99.90;;;;;;5114487;28;20183;-78
2023/06/06 07:55:43;;;;;;;9.80;7.93;;;21.20;99.90;;;;;;5115311;28;20424;-78
2023/06/06 07:58:12;;;;;;;9.40;8.40;;;21.20;99.90;;;;;;5114494;28;20827;-76
2023/06/06 08:00:40;;;;;;;11.37;8.60;;;21.20;99.90;;;;;;5098461;28;20488;-76
2023/06/06 08:03:07;;;;;;;8.80;8.00;;;21.20;99.90;;;;;;5117830;27;20426;-78
2023/06/06 08:05:33;;;;;;;8.50;7.57;;;21.30;99.90;;;;;;5116479;27;20526;-77
2023/06/06 08:08:00;;;;;;;87.27;67.40;;;21.30;99.90;;;;;;5117415;28;20459;-76
2023/06/06 08:10:26;;;;;;;17.63;12.50;;;21.30;99.90;;;;;;5115850;28;20443;-76
2023/06/06 08:12:52;;;;;;;9.10;8.20;;;21.30;99.90;;;;;;5112874;28;20455;-78
2023/06/06 08:15:17;;;;;;;8.00;7.20;;;21.30;99.90;;;;;;5110880;28;20451;-79
2023/06/06 08:17:44;;;;;;;8.60;7.70;;;21.30;99.90;;;;;;5113600;27;20690;-76
2023/06/06 08:20:11;;;;;;;11.20;7.40;;;21.30;99.90;;;;;;5110936;28;20804;-76
2023/06/06 08:22:40;;;;;;;8.97;8.07;;;21.30;99.90;;;;;;5093932;28;20527;-76
2023/06/06 08:25:07;;;;;;;9.07;8.00;;;21.30;99.90;;;;;;5111865;27;20446;-79
2023/06/06 08:27:34;;;;;;;7.87;7.17;;;21.30;99.90;;;;;;5111795;27;20989;-76
2023/06/06 08:30:00;;;;;;;8.53;7.50;;;21.30;99.90;;;;;;5114885;28;20550;-78
2023/06/06 08:32:26;;;;;;;8.53;7.23;;;21.30;99.90;;;;;;5112055;28;20424;-78
2023/06/06 08:34:53;;;;;;;7.77;7.00;;;21.30;99.90;;;;;;5117914;27;20504;-79
2023/06/06 08:37:19;;;;;;;8.53;7.60;;;21.20;99.90;;;;;;5098240;28;20999;-76
2023/06/06 08:39:45;;;;;;;8.93;8.07;;;21.30;99.90;;;;;;5105979;28;20470;-76
2023/06/06 08:42:14;;;;;;;78.13;56.23;;;21.20;99.90;;;;;;5127026;27;20186;-76
2023/06/06 08:44:41;;;;;;;10.10;9.10;;;21.30;99.90;;;;;;5134983;27;20210;-76
2023/06/06 08:47:09;;;;;;;8.90;7.47;;;21.20;99.90;;;;;;5133713;27;20557;-78
2023/06/06 08:49:36;;;;;;;9.50;7.43;;;21.20;99.90;;;;;;5129950;27;20424;-76
2023/06/06 08:52:05;;;;;;;11.23;8.73;;;21.10;99.90;;;;;;5110743;28;20472;-78
2023/06/06 08:54:32;;;;;;;9.33;8.43;;;21.10;99.90;;;;;;5113362;27;20519;-76
2023/06/06 08:57:07;;;;;;;8.70;7.87;;;21.10;99.90;;;;;;5095013;27;20463;-79
2023/06/06 08:59:37;;;;;;;9.07;8.17;;;21.10;99.90;;;;;;5092117;28;20450;-76
2023/06/06 09:02:05;;;;;;;8.43;7.63;;;21.10;99.90;;;;;;5112703;28;20566;-75
2023/06/06 09:04:35;;;;;;;9.70;8.70;;;21.10;99.90;;;;;;5113796;27;20435;-77
2023/06/06 09:07:11;;;;;;;11.33;9.20;;;21.20;99.90;;;;;;5087358;28;20438;-78
2023/06/06 09:09:38;;;;;;;9.30;7.83;;;21.20;99.90;;;;;;5110111;28;20447;-76
2023/06/06 09:12:06;;;;;;;9.67;8.67;;;21.20;99.90;;;;;;5096761;28;20424;-76
2023/06/06 09:14:32;;;;;;;10.53;9.53;;;21.30;99.90;;;;;;5114517;28;20767;-78
2023/06/06 09:16:59;;;;;;;8.70;7.80;;;21.30;99.90;;;;;;5113547;27;20462;-78
2023/06/06 09:19:26;;;;;;;9.67;8.77;;;21.40;99.90;;;;;;5128124;27;20195;-76
2023/06/06 09:21:52;;;;;;;9.93;8.93;;;21.40;99.90;;;;;;5114891;28;20940;-78
2023/06/06 09:24:18;;;;;;;13.07;9.30;;;21.40;99.90;;;;;;5115320;28;20455;-76
2023/06/06 09:26:44;;;;;;;10.73;9.43;;;21.50;99.90;;;;;;5097228;28;20994;-77
2023/06/06 09:29:12;;;;;;;11.63;9.97;;;21.50;99.90;;;;;;5091908;28;20507;-76
2023/06/06 09:31:38;;;;;;;10.30;9.30;;;21.60;99.90;;;;;;5127950;27;20452;-76
2023/06/06 09:34:06;;;;;;;19.67;15.60;;;21.70;99.90;;;;;;5082903;28;20948;-76
2023/06/06 09:36:32;;;;;;;11.53;10.37;;;21.80;99.90;;;;;;5081596;28;20218;-76
2023/06/06 09:39:11;;;;;;;12.73;11.47;;;21.80;99.90;;;;;;5105816;28;21034;-76
2023/06/06 09:41:42;;;;;;;12.13;10.40;;;21.90;99.90;;;;;;5112252;28;20458;-78
2023/06/06 09:44:21;;;;;;;10.90;8.73;;;21.90;99.90;;;;;;5128125;27;20428;-77
2023/06/06 09:46:48;;;;;;;10.70;9.60;;;21.90;99.90;;;;;;5126898;27;20446;-75
2023/06/06 09:49:14;;;;;;;11.23;8.73;;;21.90;99.90;;;;;;5090704;28;20440;-78
2023/06/06 09:51:43;;;;;;;9.00;8.07;;;21.90;99.90;;;;;;5109587;28;20503;-77
2023/06/06 09:54:12;;;;;;;11.80;10.30;;;21.80;99.90;;;;;;5105508;28;20571;-76
2023/06/06 09:56:42;;;;;;;9.97;8.97;;;21.80;99.90;;;;;;5125554;27;20558;-78
2023/06/06 09:59:10;;;;;;;10.10;9.10;;;21.90;99.90;;;;;;5092193;28;20887;-78
2023/06/06 10:01:38;;;;;;;9.50;8.50;;;21.90;99.90;;;;;;5110093;28;20447;-78
2023/06/06 10:04:05;;;;;;;11.40;10.30;;;22.00;99.90;;;;;;5100850;27;20476;-76
2023/06/06 10:06:34;;;;;;;9.10;8.30;;;22.00;99.90;;;;;;5107711;27;21047;-76
2023/06/06 10:09:02;;;;;;;9.73;8.73;;;22.10;99.90;;;;;;5081493;28;21012;-76
2023/06/06 10:11:28;;;;;;;9.00;8.10;;;22.10;99.90;;;;;;5078228;28;20430;-76
2023/06/06 10:13:56;;;;;;;9.83;8.80;;;22.10;99.90;;;;;;5100076;28;20419;-76
2023/06/06 10:16:22;;;;;;;9.30;8.40;;;22.10;99.90;;;;;;5090890;28;20495;-77
2023/06/06 10:18:48;;;;;;;10.70;9.57;;;22.00;99.90;;;;;;5109989;28;20436;-78
2023/06/06 10:21:15;;;;;;;10.93;9.83;;;22.00;99.90;;;;;;5111403;28;20468;-76
2023/06/06 10:23:42;;;;;;;9.70;8.80;;;22.00;99.90;;;;;;5115813;27;20451;-76
2023/06/06 10:26:21;;;;;;;9.83;8.83;;;22.10;99.90;;;;;;5084375;28;20462;-79
2023/06/06 10:28:56;;;;;;;10.27;9.27;;;22.10;99.90;;;;;;5108175;27;20444;-77
2023/06/06 10:31:42;;;;;;;12.00;8.90;;;22.20;99.90;;;;;;5089672;28;21048;-79
2023/06/06 10:34:13;;;;;;;10.70;9.60;;;22.20;99.90;;;;;;5107740;28;20448;-80
2023/06/06 10:36:44;;;;;;;9.40;8.50;;;22.20;99.90;;;;;;5099837;28;20471;-79
2023/06/06 10:39:22;;;;;;;11.10;9.50;;;22.20;99.90;;;;;;5088696;28;20440;-77
2023/06/06 10:42:05;;;;;;;13.40;8.87;;;22.20;99.90;;;;;;5103757;28;20976;-80
2023/06/06 10:44:41;;;;;;;11.40;8.97;;;22.20;99.90;;;;;;5082243;28;20439;-77
2023/06/06 10:47:52;;;;;;;13.23;8.57;;;22.30;99.90;;;;;;5108194;28;20390;-80
2023/06/06 10:50:19;;;;;;;9.57;8.57;;;22.40;99.90;;;;;;5104361;28;21160;-78
2023/06/06 10:52:49;;;;;;;10.50;9.20;;;22.50;99.90;;;;;;5107855;27;20439;-76
2023/06/06 10:55:16;;;;;;;9.70;8.80;;;22.50;99.90;;;;;;5088986;28;20492;-80
2023/06/06 10:57:53;;;;;;;9.63;7.73;;;22.60;99.90;;;;;;5083659;28;20457;-80
2023/06/06 11:00:22;;;;;;;9.63;8.70;;;22.60;99.90;;;;;;5084528;28;20428;-76
2023/06/06 11:02:48;;;;;;;12.60;9.47;;;22.70;99.90;;;;;;5103607;28;20472;-77
2023/06/06 11:05:13;;;;;;;10.67;9.67;;;22.60;99.90;;;;;;5106983;28;20441;-80
2023/06/06 11:07:39;;;;;;;11.67;9.00;;;22.60;99.90;;;;;;5111475;28;20184;-79
2023/06/06 11:10:06;;;;;;;11.90;9.27;;;22.50;99.90;;;;;;5090916;28;20206;-79
2023/06/06 11:12:32;;;;;;;10.97;9.43;;;22.50;99.90;;;;;;5081085;28;20424;-77
2023/06/06 11:15:04;;;;;;;11.00;9.90;;;22.60;99.90;;;;;;5105359;27;20456;-80
2023/06/06 11:17:45;;;;;;;13.47;10.63;;;22.60;99.90;;;;;;5093304;28;20473;-77
2023/06/06 11:20:21;;;;;;;12.20;10.73;;;22.60;99.90;;;;;;5096013;28;21042;-77
2023/06/06 11:23:01;;;;;;;16.30;10.40;;;22.60;99.90;;;;;;5099873;28;20430;-80
2023/06/06 11:25:31;;;;;;;15.70;10.50;;;22.60;99.90;;;;;;5113554;28;20621;-77
2023/06/06 11:27:58;;;;;;;12.17;10.97;;;22.60;99.90;;;;;;5119081;27;20428;-77
2023/06/06 11:30:29;;;;;;;12.27;10.90;;;22.70;99.90;;;;;;5110806;27;20446;-77
2023/06/06 11:32:55;;;;;;;8.83;8.03;;;22.70;99.90;;;;;;5108183;27;20545;-80
2023/06/06 11:35:21;;;;;;;8.43;7.60;;;22.70;99.90;;;;;;5111527;28;20465;-77
2023/06/06 11:37:47;;;;;;;7.60;6.87;;;22.70;99.90;;;;;;5112444;28;20335;-80
2023/06/06 11:40:14;;;;;;;11.40;5.87;;;22.70;99.90;;;;;;5119661;27;20802;-80
2023/06/06 11:42:43;;;;;;;6.43;5.83;;;22.60;99.90;;;;;;5093825;28;20441;-77
2023/06/06 11:45:16;;;;;;;8.23;5.43;;;22.50;99.90;;;;;;5093651;28;21025;-77
2023/06/06 11:47:43;;;;;;;4.83;4.40;;;22.60;99.90;;;;;;5092350;28;20433;-77
2023/06/06 11:50:11;;;;;;;5.17;3.90;;;22.70;99.90;;;;;;5088029;28;20997;-80
2023/06/06 11:52:44;;;;;;;5.73;4.23;;;22.60;99.90;;;;;;5089140;28;20533;-77
2023/06/06 11:55:10;;;;;;;5.13;4.20;;;22.60;99.90;;;;;;5108153;28;20460;-77
2023/06/06 11:57:35;;;;;;;5.40;4.30;;;22.60;99.90;;;;;;5092994;28;20536;-80
2023/06/06 12:00:17;;;;;;;7.23;3.90;;;22.50;99.90;;;;;;5094584;27;20239;-79
2023/06/06 12:02:48;;;;;;;4.37;3.83;;;22.40;99.90;;;;;;5091240;28;20412;-80
2023/06/06 12:05:22;;;;;;;7.90;6.53;;;22.30;99.90;;;;;;5110952;27;20470;-77
2023/06/06 12:07:54;;;;;;;4.73;3.90;;;22.40;99.90;;;;;;5102059;27;20418;-80
2023/06/06 12:10:28;;;;;;;4.73;4.20;;;22.40;99.90;;;;;;5108568;28;20557;-77
2023/06/06 12:12:54;;;;;;;5.33;4.20;;;22.40;99.90;;;;;;5111897;28;20391;-79
2023/06/06 12:15:20;;;;;;;6.43;4.00;;;22.40;99.90;;;;;;5109018;28;20485;-80
2023/06/06 12:17:46;;;;;;;4.10;3.60;;;22.30;99.90;;;;;;5095886;28;20468;-77
2023/06/06 12:20:21;;;;;;;5.00;3.57;;;22.30;99.90;;;;;;5100971;28;20460;-77
2023/06/06 12:22:49;;;;;;;4.50;3.60;;;22.20;99.90;;;;;;5111194;28;20644;-80
2023/06/06 12:25:26;;;;;;;5.47;3.67;;;22.20;99.90;;;;;;5109721;27;20443;-79
2023/06/06 12:27:53;;;;;;;5.23;4.03;;;22.30;99.90;;;;;;5089321;28;20432;-80
2023/06/06 12:30:30;;;;;;;10.67;4.50;;;22.30;99.90;;;;;;5108662;27;20492;-80
2023/06/06 12:32:57;;;;;;;6.23;4.00;;;22.30;99.90;;;;;;5103603;27;20864;-80
2023/06/06 12:35:23;;;;;;;7.10;5.90;;;22.40;99.90;;;;;;5098083;28;20436;-77
2023/06/06 12:37:48;;;;;;;10.03;7.20;;;22.50;99.90;;;;;;5107872;27;20961;-80